Главная страница
METAR-TAF:

METAR-TAF

Аэропорты :

Николаев, Украина

широта: 47-03-29N, долгота: 031-55-15E, высота над уровнем моря: 56 м

Текущие метеонаблюдения

Эта сводка был подготовлена 2 часа и 35 минут назад, в 17:00 UTC
Ветер 12 Узел от южный
Температура 10°C
Влажность 62%
Давление 1022 hPa
Видимость 10 км и более
Нет облачности ниже 1500 м, и нет кучево-дождевой облачности

METAR: UKON 261700Z 19006MPS CAVOK 10/03 Q1022 NOSIG

Время: 22:35 (19:35 UTC)

Прогноз

Эта сводка был подготовлена 5 часа и 33 минут назад, в 14:02 UTC
Прогноз действительный с 26-го 15 UTC до 26-го 24 UTC
Ветер 17 Узел от южный с порывами до 31 Узел
Видимость 10 км и более
Отдельные облака на высоте 3000 фута

TAF: UKON 261402Z 2615/2624 19009G16MPS 9999 SCT030

Метеонаблюдения и прогнозы для более 4000 аэропортов (сводки METAR и TAF).

Имеющиеся станции представлены на карте желтыми и красными точками.

Чтобы увидеть название станции, наведите на нее мышь.

Затем щелкните, чтобы увидеть метеонаблюдения и метеопрогнозы.

Управление картой: чтобы увеличить масштаб, щелкните зеленые кнопки с черным крестиком; чтобы уменьшить масштаб, щелкните зеленую кнопку с тире; для просмотра соседних карт щелкайте зеленые стрелки.


METAR-TAF: